Cudahy, California
Current Conditions -  °F | °C
As of 9:47 AM on Monday 26 Jan 2015 (Local Time) from KCQT Reporting Station
Overcast Overcast  
Wind Chill: 72°   Ceiling: 11000
Heat Index: 72°   Visibility: 10mi
Dew Point: 34°   Wind: 5mph
Humidity: 25%   Direction: 90°E
Pressure: 30.01"   Gusts: NA
Location:  33.9704°N, 118.185°W
Report Text: KCQT 261747Z AUTO 09004KT 10SM OVC110 22/01 A3001 RMK AO2 SLP162 T02220011 10228 20150 53009 $
Loading
Personal Weather Stations






























Interactive Weather Map New forecast layout! Learn more

10-Day Weather Forecast

Advertisements
Track Severe Weather on mobile